createdAt,value
2023-03-11T00:00:31.106Z,79.31
2023-03-11T00:02:55.891Z,79.08
2023-03-11T00:05:28.702Z,78.94
2023-03-11T00:07:51.036Z,79.00
2023-03-11T00:10:18.319Z,78.72
2023-03-11T00:12:39.858Z,79.11
2023-03-11T00:15:01.472Z,78.66
2023-03-11T00:17:23.197Z,78.91
2023-03-11T00:19:44.845Z,79.25
2023-03-11T00:22:06.448Z,79.19
2023-03-11T00:24:28.071Z,78.87
2023-03-11T00:26:49.713Z,78.46
2023-03-11T00:29:11.401Z,78.67
2023-03-11T00:31:33.041Z,78.28
2023-03-11T00:33:57.344Z,77.71
2023-03-11T00:36:31.881Z,76.67
2023-03-11T00:38:53.632Z,76.25
2023-03-11T00:41:15.364Z,76.19
2023-03-11T00:43:37.029Z,75.72
2023-03-11T00:45:59.049Z,75.50
2023-03-11T00:48:20.906Z,75.46
2023-03-11T00:50:43.254Z,75.05
2023-03-11T00:53:06.719Z,74.88
2023-03-11T00:55:32.950Z,74.72
2023-03-11T00:58:03.839Z,74.32
2023-03-11T01:00:34.092Z,73.57
2023-03-11T01:02:58.181Z,73.64
2023-03-11T01:05:23.282Z,73.92
2023-03-11T01:07:44.965Z,73.75
2023-03-11T01:10:09.706Z,73.07
2023-03-11T01:12:31.406Z,73.07
2023-03-11T01:14:53.249Z,73.54
2023-03-11T01:17:15.010Z,73.25
2023-03-11T01:19:37.132Z,73.00
2023-03-11T01:21:58.822Z,73.07
2023-03-11T01:24:20.506Z,73.06
2023-03-11T01:26:42.225Z,72.66
2023-03-11T01:29:04.195Z,73.05
2023-03-11T01:31:25.845Z,73.16
2023-03-11T01:33:47.546Z,72.77
2023-03-11T01:36:09.438Z,72.79
2023-03-11T01:38:31.074Z,72.72
2023-03-11T01:40:53.725Z,72.75
2023-03-11T01:43:43.836Z,73.07
2023-03-11T01:46:36.605Z,72.86
2023-03-11T01:49:03.512Z,73.29
2023-03-11T01:51:44.591Z,72.28
2023-03-11T01:54:14.911Z,72.20
2023-03-11T01:56:38.814Z,72.33
2023-03-11T01:59:01.186Z,72.15
2023-03-11T02:01:24.978Z,71.84
2023-03-11T02:03:47.840Z,71.86
2023-03-11T02:06:15.912Z,71.88
2023-03-11T02:08:37.784Z,72.12
2023-03-11T02:11:05.041Z,71.55
2023-03-11T02:13:26.796Z,71.60
2023-03-11T02:15:49.983Z,71.68
2023-03-11T02:18:15.222Z,71.90
2023-03-11T02:20:50.888Z,71.70
2023-03-11T02:23:14.277Z,71.81
2023-03-11T02:25:48.368Z,71.83
2023-03-11T02:28:15.400Z,72.28
2023-03-11T02:30:43.430Z,71.76
2023-03-11T02:33:05.467Z,71.94
2023-03-11T02:35:28.028Z,72.17
2023-03-11T02:37:53.746Z,72.46
2023-03-11T02:40:22.182Z,72.67
2023-03-11T02:42:44.560Z,72.62
2023-03-11T02:45:13.975Z,72.61
2023-03-11T02:47:39.387Z,72.71
2023-03-11T02:50:07.520Z,72.26
2023-03-11T02:52:29.428Z,72.43
2023-03-11T02:54:51.027Z,72.03
2023-03-11T02:57:12.609Z,72.31
2023-03-11T02:59:35.800Z,72.65
2023-03-11T03:01:57.645Z,72.72
2023-03-11T03:04:19.576Z,72.46
2023-03-11T03:06:41.373Z,72.06
2023-03-11T03:09:04.385Z,72.23
2023-03-11T03:11:26.342Z,72.58
2023-03-11T03:13:48.012Z,72.94
2023-03-11T03:16:10.473Z,72.53
2023-03-11T03:18:32.516Z,72.56
2023-03-11T03:20:54.977Z,72.86
2023-03-11T03:23:17.276Z,72.86
2023-03-11T03:25:43.721Z,72.64
2023-03-11T03:28:06.323Z,72.34
2023-03-11T03:30:30.928Z,72.32
2023-03-11T03:32:52.598Z,72.37
2023-03-11T03:35:15.478Z,72.55
2023-03-11T03:37:49.592Z,72.47
2023-03-11T03:40:14.181Z,72.43
2023-03-11T03:42:37.294Z,72.73
2023-03-11T03:44:59.775Z,73.00
2023-03-11T03:47:21.724Z,72.88
2023-03-11T03:49:43.524Z,72.62
2023-03-11T03:52:07.240Z,72.70
2023-03-11T03:54:28.851Z,72.66
2023-03-11T03:56:50.523Z,73.31
2023-03-11T03:59:13.080Z,72.72
2023-03-11T04:01:41.289Z,72.63
2023-03-11T04:04:03.147Z,72.77
2023-03-11T04:06:27.504Z,72.92
2023-03-11T04:08:55.429Z,72.98
2023-03-11T04:11:22.482Z,72.75
2023-03-11T04:13:44.850Z,72.93
2023-03-11T04:16:08.389Z,73.34
2023-03-11T04:18:30.281Z,73.04
2023-03-11T04:20:51.862Z,72.92
2023-03-11T04:23:13.594Z,73.01
2023-03-11T04:25:35.364Z,72.89
2023-03-11T04:27:57.313Z,72.60
2023-03-11T04:30:19.206Z,72.76
2023-03-11T04:32:43.387Z,72.78
2023-03-11T04:35:06.805Z,72.61
2023-03-11T04:37:29.728Z,72.83
2023-03-11T04:39:53.375Z,72.94
2023-03-11T04:42:15.498Z,73.23
2023-03-11T04:44:38.651Z,73.21
2023-03-11T04:47:01.007Z,73.35
2023-03-11T04:49:23.515Z,73.40
2023-03-11T04:51:46.555Z,73.15
2023-03-11T04:54:10.922Z,73.26
2023-03-11T04:56:33.846Z,73.05
2023-03-11T04:58:55.637Z,73.50
2023-03-11T05:01:19.653Z,72.93
2023-03-11T05:03:41.423Z,73.52
2023-03-11T05:06:05.679Z,73.81
2023-03-11T05:08:27.612Z,73.28
2023-03-11T05:10:51.541Z,73.76
2023-03-11T05:13:13.476Z,73.47
2023-03-11T05:15:36.602Z,73.63
2023-03-11T05:17:58.828Z,73.54
2023-03-11T05:20:20.537Z,73.70
2023-03-11T05:22:42.190Z,73.73
2023-03-11T05:25:06.234Z,73.12
2023-03-11T05:27:28.564Z,73.92
2023-03-11T05:29:51.983Z,73.94
2023-03-11T05:32:14.352Z,74.02
2023-03-11T05:34:38.176Z,73.42
2023-03-11T05:37:03.213Z,73.98
2023-03-11T05:39:25.543Z,73.60
2023-03-11T05:41:47.592Z,73.67
2023-03-11T05:44:10.167Z,73.95
2023-03-11T05:46:32.345Z,73.93
2023-03-11T05:48:54.615Z,73.83
2023-03-11T05:51:17.059Z,73.78
2023-03-11T05:53:48.338Z,73.55
2023-03-11T05:56:16.243Z,74.12
2023-03-11T05:58:37.928Z,74.00
2023-03-11T06:01:01.720Z,74.08
2023-03-11T06:03:23.554Z,74.31
2023-03-11T06:05:50.127Z,74.07
2023-03-11T06:08:13.544Z,74.08
2023-03-11T06:10:35.232Z,74.10
2023-03-11T06:12:56.955Z,74.21
2023-03-11T06:15:29.723Z,74.41
2023-03-11T06:17:51.335Z,74.50
2023-03-11T06:20:13.376Z,74.69
2023-03-11T06:22:36.398Z,74.89
2023-03-11T06:24:58.985Z,74.26
2023-03-11T06:27:21.075Z,74.66
2023-03-11T06:29:42.984Z,74.59
2023-03-11T06:32:06.561Z,74.53
2023-03-11T06:34:28.347Z,74.65
2023-03-11T06:36:50.034Z,74.56
2023-03-11T06:39:15.491Z,74.75
2023-03-11T06:41:38.735Z,74.30
2023-03-11T06:44:02.785Z,74.28
2023-03-11T06:46:24.547Z,74.21
2023-03-11T06:48:48.027Z,74.31
2023-03-11T06:51:11.246Z,74.08
2023-03-11T06:53:33.927Z,73.26
2023-03-11T06:56:03.834Z,72.41
2023-03-11T06:58:28.221Z,71.55
2023-03-11T07:00:49.863Z,70.36
2023-03-11T07:03:11.543Z,67.90
2023-03-11T07:05:33.192Z,66.83
2023-03-11T07:08:00.270Z,66.81
2023-03-11T07:10:22.040Z,67.00
2023-03-11T07:12:43.741Z,67.90
2023-03-11T07:15:06.167Z,68.04
2023-03-11T07:17:29.737Z,68.47
2023-03-11T07:19:52.183Z,69.40
2023-03-11T07:22:14.710Z,69.60
2023-03-11T07:24:36.337Z,69.45
2023-03-11T07:26:57.931Z,69.50
2023-03-11T07:29:20.324Z,70.05
2023-03-11T07:31:42.058Z,70.00
2023-03-11T07:34:11.351Z,69.95
2023-03-11T07:36:33.114Z,69.65
2023-03-11T07:39:04.379Z,70.11
2023-03-11T07:41:27.112Z,70.12
2023-03-11T07:43:48.752Z,70.70
2023-03-11T07:46:18.460Z,71.15
2023-03-11T07:48:40.847Z,71.20
2023-03-11T07:51:11.220Z,70.79
2023-03-11T07:53:34.085Z,70.54
2023-03-11T07:55:58.166Z,70.41
2023-03-11T07:58:19.779Z,70.06
2023-03-11T08:00:41.365Z,69.04
2023-03-11T08:03:02.985Z,68.69
2023-03-11T08:05:24.678Z,67.92
2023-03-11T08:07:47.025Z,68.12
2023-03-11T08:10:09.965Z,68.21
2023-03-11T08:12:31.552Z,67.77
2023-03-11T08:14:53.224Z,66.91
2023-03-11T08:17:14.775Z,67.06
2023-03-11T08:19:36.620Z,67.29
2023-03-11T08:22:00.874Z,67.68
2023-03-11T08:24:22.775Z,66.81
2023-03-11T08:26:44.403Z,67.13
2023-03-11T08:29:06.841Z,67.17
2023-03-11T08:31:33.180Z,67.16
2023-03-11T08:34:00.864Z,67.16
2023-03-11T08:36:22.712Z,67.32
2023-03-11T08:38:45.225Z,67.44
2023-03-11T08:41:06.970Z,65.59
2023-03-11T08:43:29.100Z,65.29
2023-03-11T08:45:50.679Z,64.97
2023-03-11T08:48:13.113Z,65.45
2023-03-11T08:50:44.134Z,65.41
2023-03-11T08:53:09.525Z,65.77
2023-03-11T08:55:31.205Z,65.91
2023-03-11T08:57:52.868Z,65.73
2023-03-11T09:00:15.225Z,63.71
2023-03-11T09:02:36.813Z,61.05
2023-03-11T09:04:58.510Z,60.52
2023-03-11T09:07:20.156Z,61.74
2023-03-11T09:09:41.754Z,61.20
2023-03-11T09:12:03.613Z,61.70
2023-03-11T09:14:25.289Z,62.16
2023-03-11T09:16:46.925Z,61.94
2023-03-11T09:19:08.951Z,61.87
2023-03-11T09:21:30.656Z,60.39
2023-03-11T09:23:52.404Z,60.06
2023-03-11T09:26:14.864Z,60.90
2023-03-11T09:28:36.475Z,60.57
2023-03-11T09:30:58.211Z,58.82
2023-03-11T09:33:19.883Z,56.93
2023-03-11T09:35:41.580Z,57.27
2023-03-11T09:38:03.270Z,57.91
2023-03-11T09:40:28.153Z,56.83
2023-03-11T09:42:59.329Z,53.58
2023-03-11T09:45:38.421Z,54.10
2023-03-11T09:48:28.353Z,53.67
2023-03-11T09:50:53.707Z,53.73
2023-03-11T09:53:43.825Z,54.22
2023-03-11T09:56:11.384Z,54.80
2023-03-11T09:58:44.564Z,55.15
2023-03-11T10:01:16.946Z,55.93
2023-03-11T10:03:40.387Z,54.55
2023-03-11T10:06:21.279Z,52.40
2023-03-11T10:09:12.179Z,50.99
2023-03-11T10:11:54.497Z,50.96
2023-03-11T10:15:01.346Z,50.74
2023-03-11T10:17:25.964Z,51.47
2023-03-11T10:20:12.970Z,52.23
2023-03-11T10:23:07.884Z,51.13
2023-03-11T10:26:37.076Z,51.88
2023-03-11T10:29:14.576Z,51.10
2023-03-11T10:31:54.439Z,49.99
2023-03-11T10:34:38.260Z,49.49
2023-03-11T10:37:17.058Z,49.28
2023-03-11T10:39:40.732Z,47.85
2023-03-11T10:42:06.095Z,49.00
2023-03-11T10:44:35.193Z,48.71
2023-03-11T10:46:56.791Z,48.77
2023-03-11T10:49:18.877Z,49.10
2023-03-11T10:51:44.950Z,48.22
2023-03-11T10:54:06.749Z,48.91
2023-03-11T10:56:34.479Z,47.82
2023-03-11T10:58:57.515Z,45.92
2023-03-11T11:01:21.622Z,46.07
2023-03-11T11:03:49.154Z,47.75
2023-03-11T11:06:37.420Z,48.88
2023-03-11T11:09:21.005Z,48.08
2023-03-11T11:12:01.267Z,45.44
2023-03-11T11:14:22.991Z,44.63
2023-03-11T11:16:52.446Z,45.09
2023-03-11T11:19:15.303Z,46.40
2023-03-11T11:21:45.435Z,45.87
2023-03-11T11:24:26.025Z,45.71
2023-03-11T11:27:16.755Z,47.09
2023-03-11T11:29:38.782Z,48.17
2023-03-11T11:32:18.890Z,46.32
2023-03-11T11:34:41.563Z,47.21
2023-03-11T11:37:06.769Z,48.96
2023-03-11T11:39:40.236Z,49.06
2023-03-11T11:42:03.082Z,50.00
2023-03-11T11:44:34.066Z,48.68
2023-03-11T11:47:07.245Z,47.66
2023-03-11T11:49:34.608Z,46.40
2023-03-11T11:52:14.475Z,45.69
2023-03-11T11:54:49.370Z,45.72
2023-03-11T11:57:14.076Z,45.17
2023-03-11T11:59:35.805Z,46.13
2023-03-11T12:02:33.570Z,47.31
2023-03-11T12:05:25.906Z,45.85
2023-03-11T12:08:18.960Z,46.37
2023-03-11T12:11:01.312Z,46.93
2023-03-11T12:13:49.376Z,47.03
2023-03-11T12:16:57.391Z,44.54
2023-03-11T12:19:43.298Z,43.42
2023-03-11T12:22:18.293Z,44.43
2023-03-11T12:24:57.326Z,42.61
2023-03-11T12:27:27.776Z,42.08
2023-03-11T12:29:57.988Z,43.06
2023-03-11T12:32:38.312Z,43.98
2023-03-11T12:35:21.320Z,44.89
2023-03-11T12:37:43.216Z,45.20
2023-03-11T12:40:42.384Z,45.92
2023-03-11T12:43:04.041Z,42.87
2023-03-11T12:45:50.595Z,42.82
2023-03-11T12:48:27.623Z,43.14
2023-03-11T12:50:49.372Z,41.57
2023-03-11T12:53:17.902Z,41.97
2023-03-11T12:55:40.171Z,43.04
2023-03-11T12:58:30.372Z,41.92
2023-03-11T13:01:15.033Z,42.76
2023-03-11T13:04:25.483Z,43.75
2023-03-11T13:07:30.049Z,44.87
2023-03-11T13:10:17.941Z,45.57
2023-03-11T13:12:47.438Z,45.69
2023-03-11T13:15:20.971Z,44.18
2023-03-11T13:17:42.714Z,43.25
2023-03-11T13:20:41.406Z,43.06
2023-03-11T13:23:03.012Z,41.96
2023-03-11T13:25:38.033Z,42.61
2023-03-11T13:29:09.640Z,42.68
2023-03-11T13:32:13.673Z,41.16
2023-03-11T13:35:10.641Z,42.32
2023-03-11T13:37:51.577Z,43.53
2023-03-11T13:40:39.978Z,41.90
2023-03-11T13:43:08.550Z,42.02
2023-03-11T13:45:35.657Z,41.25
2023-03-11T13:48:16.548Z,42.11
2023-03-11T13:50:53.528Z,42.38
2023-03-11T13:53:25.769Z,42.50
2023-03-11T13:55:48.479Z,43.67
2023-03-11T13:58:36.348Z,43.22
2023-03-11T14:01:01.478Z,43.29
2023-03-11T14:03:27.978Z,42.30
2023-03-11T14:06:03.732Z,42.77
2023-03-11T14:08:31.804Z,42.72
2023-03-11T14:11:03.296Z,42.58
2023-03-11T14:13:33.824Z,42.63
2023-03-11T14:16:13.745Z,42.90
2023-03-11T14:18:42.415Z,43.04
2023-03-11T14:21:12.686Z,43.45
2023-03-11T14:23:41.754Z,40.73
2023-03-11T14:26:13.506Z,39.32
2023-03-11T14:28:42.911Z,40.02
2023-03-11T14:31:06.180Z,40.14
2023-03-11T14:33:28.256Z,39.29
2023-03-11T14:35:59.946Z,39.57
2023-03-11T14:38:31.171Z,40.05
2023-03-11T14:40:58.045Z,41.08
2023-03-11T14:43:21.780Z,40.44
2023-03-11T14:45:44.348Z,39.99
2023-03-11T14:48:41.733Z,40.63
2023-03-11T14:51:10.707Z,40.91
2023-03-11T14:53:53.154Z,41.49
2023-03-11T14:56:26.674Z,41.58
2023-03-11T14:59:07.420Z,41.79
2023-03-11T15:01:36.127Z,41.86
2023-03-11T15:04:32.614Z,42.07
2023-03-11T15:06:55.866Z,42.42
2023-03-11T15:09:23.779Z,41.87
2023-03-11T15:11:55.059Z,42.03
2023-03-11T15:14:24.606Z,42.38
2023-03-11T15:16:47.358Z,42.34
2023-03-11T15:19:44.704Z,41.17
2023-03-11T15:22:25.632Z,40.73
2023-03-11T15:24:57.842Z,41.06
2023-03-11T15:27:32.252Z,39.84
2023-03-11T15:29:54.181Z,39.49
2023-03-11T15:32:31.417Z,39.46
2023-03-11T15:35:10.650Z,39.54
2023-03-11T15:37:32.547Z,39.23
2023-03-11T15:40:09.718Z,39.72
2023-03-11T15:42:31.398Z,39.87
2023-03-11T15:45:09.448Z,40.19
2023-03-11T15:47:31.602Z,40.36
2023-03-11T15:49:53.459Z,40.45
2023-03-11T15:52:16.693Z,40.95
2023-03-11T15:54:39.241Z,40.73
2023-03-11T15:57:04.786Z,40.74
2023-03-11T15:59:28.392Z,41.40
2023-03-11T16:01:50.350Z,41.06
2023-03-11T16:04:15.450Z,40.80
2023-03-11T16:06:37.074Z,40.89
2023-03-11T16:08:58.694Z,40.32
2023-03-11T16:11:20.299Z,40.11
2023-03-11T16:13:42.247Z,40.43
2023-03-11T16:16:04.921Z,39.79
2023-03-11T16:18:26.664Z,40.26
2023-03-11T16:20:53.007Z,41.45
2023-03-11T16:23:25.653Z,41.37
2023-03-11T16:25:48.691Z,42.03
2023-03-11T16:28:14.985Z,41.97
2023-03-11T16:30:36.629Z,42.19
2023-03-11T16:32:58.391Z,42.08
2023-03-11T16:35:20.910Z,42.31
2023-03-11T16:37:43.432Z,42.34
2023-03-11T16:40:07.220Z,43.01
2023-03-11T16:42:28.814Z,43.32
2023-03-11T16:44:50.507Z,41.55
2023-03-11T16:47:12.158Z,42.34
2023-03-11T16:49:33.843Z,42.93
2023-03-11T16:51:55.649Z,43.82
2023-03-11T16:54:17.400Z,43.65
2023-03-11T16:56:41.710Z,43.67
2023-03-11T16:59:04.313Z,44.22
2023-03-11T17:01:26.133Z,44.25
2023-03-11T17:03:50.848Z,44.83
2023-03-11T17:06:12.546Z,44.90
2023-03-11T17:08:34.253Z,45.10
2023-03-11T17:10:55.895Z,45.63
2023-03-11T17:13:19.142Z,45.89
2023-03-11T17:15:44.353Z,45.59
2023-03-11T17:18:06.133Z,46.25
2023-03-11T17:20:28.044Z,46.31
2023-03-11T17:22:49.842Z,46.54
2023-03-11T17:25:11.492Z,46.92
2023-03-11T17:27:33.876Z,46.63
2023-03-11T17:29:55.632Z,47.10
2023-03-11T17:32:17.836Z,46.79
2023-03-11T17:34:39.876Z,46.82
2023-03-11T17:37:01.689Z,46.66
2023-03-11T17:39:23.861Z,47.44
2023-03-11T17:41:46.633Z,47.62
2023-03-11T17:44:09.864Z,47.40
2023-03-11T17:46:31.648Z,47.63
2023-03-11T17:48:53.511Z,48.08
2023-03-11T17:51:19.815Z,48.22
2023-03-11T17:53:45.982Z,48.61
2023-03-11T17:56:08.863Z,49.17
2023-03-11T17:58:30.623Z,48.89
2023-03-11T18:00:52.268Z,48.47
2023-03-11T18:03:13.935Z,49.38
2023-03-11T18:05:37.658Z,49.43
2023-03-11T18:07:59.366Z,50.08
2023-03-11T18:10:21.654Z,49.99
2023-03-11T18:12:45.846Z,50.55
2023-03-11T18:15:14.299Z,50.41
2023-03-11T18:17:36.231Z,50.79
2023-03-11T18:20:00.467Z,50.50
2023-03-11T18:22:22.118Z,51.20
2023-03-11T18:24:43.809Z,51.54
2023-03-11T18:27:05.628Z,52.10
2023-03-11T18:29:27.419Z,52.12
2023-03-11T18:31:49.216Z,52.44
2023-03-11T18:34:13.614Z,52.96
2023-03-11T18:36:37.623Z,53.09
2023-03-11T18:39:01.501Z,53.27
2023-03-11T18:41:25.150Z,53.86
2023-03-11T18:43:47.060Z,53.87
2023-03-11T18:46:11.504Z,54.14
2023-03-11T18:48:33.201Z,54.69
2023-03-11T18:50:55.665Z,54.76
2023-03-11T18:53:17.363Z,54.93
2023-03-11T18:55:39.030Z,55.35
2023-03-11T18:58:00.762Z,55.16
2023-03-11T19:00:23.656Z,54.94
2023-03-11T19:02:45.365Z,55.28
2023-03-11T19:05:07.662Z,55.38
2023-03-11T19:07:29.762Z,55.72
2023-03-11T19:09:51.382Z,56.00
2023-03-11T19:12:13.003Z,56.27
2023-03-11T19:14:35.389Z,56.27
2023-03-11T19:16:57.088Z,56.63
2023-03-11T19:19:18.948Z,57.02
2023-03-11T19:21:40.717Z,57.04
2023-03-11T19:24:02.493Z,57.61
2023-03-11T19:26:41.411Z,57.26
2023-03-11T19:29:05.264Z,57.43
2023-03-11T19:31:26.905Z,57.22
2023-03-11T19:33:50.827Z,57.27
2023-03-11T19:36:13.493Z,57.37
2023-03-11T19:38:35.867Z,57.17
2023-03-11T19:41:05.286Z,57.62
2023-03-11T19:43:27.553Z,57.62
2023-03-11T19:45:50.583Z,57.56
2023-03-11T19:48:13.337Z,57.86
2023-03-11T19:50:35.123Z,58.08
2023-03-11T19:52:56.836Z,58.25
2023-03-11T19:55:18.599Z,58.03
2023-03-11T19:57:40.401Z,58.55
2023-03-11T20:00:02.356Z,58.66
2023-03-11T20:02:26.575Z,58.60
2023-03-11T20:04:48.384Z,58.77
2023-03-11T20:07:11.751Z,58.85
2023-03-11T20:09:35.080Z,58.93
2023-03-11T20:11:56.800Z,59.07
2023-03-11T20:14:18.472Z,59.46
2023-03-11T20:16:40.318Z,59.24
2023-03-11T20:19:02.782Z,60.04
2023-03-11T20:21:24.483Z,59.79
2023-03-11T20:23:46.125Z,59.83
2023-03-11T20:26:12.978Z,59.82
2023-03-11T20:28:34.876Z,60.26
2023-03-11T20:30:56.690Z,60.23
2023-03-11T20:33:18.374Z,60.27
2023-03-11T20:35:41.727Z,60.11
2023-03-11T20:38:03.493Z,60.47
2023-03-11T20:40:25.209Z,60.97
2023-03-11T20:42:47.288Z,61.02
2023-03-11T20:45:10.646Z,60.73
2023-03-11T20:47:33.193Z,61.09
2023-03-11T20:49:56.873Z,61.31
2023-03-11T20:52:19.601Z,61.54
2023-03-11T20:54:41.672Z,61.77
2023-03-11T20:57:04.012Z,61.33
2023-03-11T20:59:25.805Z,61.59
2023-03-11T21:01:49.153Z,61.57
2023-03-11T21:04:11.218Z,61.28
2023-03-11T21:06:40.769Z,61.91
2023-03-11T21:09:07.430Z,61.21
2023-03-11T21:11:29.245Z,61.77
2023-03-11T21:13:51.868Z,61.46
2023-03-11T21:16:13.729Z,61.50
2023-03-11T21:18:35.540Z,61.43
2023-03-11T21:20:57.755Z,61.41
2023-03-11T21:23:19.442Z,61.24
2023-03-11T21:25:42.706Z,61.47
2023-03-11T21:28:04.740Z,61.28
2023-03-11T21:30:26.397Z,61.33
2023-03-11T21:32:48.236Z,61.05
2023-03-11T21:35:09.998Z,61.13
2023-03-11T21:37:31.712Z,61.21
2023-03-11T21:39:54.281Z,60.86
2023-03-11T21:42:16.596Z,61.47
2023-03-11T21:44:38.669Z,60.85
2023-03-11T21:47:00.388Z,61.00
2023-03-11T21:49:23.052Z,60.78
2023-03-11T21:51:44.855Z,60.95
2023-03-11T21:54:06.490Z,60.75
2023-03-11T21:56:28.740Z,60.73
2023-03-11T21:58:50.573Z,60.73
2023-03-11T22:01:12.853Z,60.62
2023-03-11T22:03:36.064Z,60.81
2023-03-11T22:05:59.595Z,60.56
2023-03-11T22:08:21.615Z,60.76
2023-03-11T22:10:43.454Z,60.95
2023-03-11T22:13:05.407Z,60.91
2023-03-11T22:15:27.588Z,60.83
2023-03-11T22:17:49.473Z,60.87
2023-03-11T22:20:12.297Z,60.82
2023-03-11T22:22:34.372Z,60.94
2023-03-11T22:24:56.065Z,61.07
2023-03-11T22:27:17.685Z,60.99
2023-03-11T22:29:39.682Z,61.09
2023-03-11T22:32:01.340Z,61.46
2023-03-11T22:34:22.968Z,61.32
2023-03-11T22:36:44.558Z,61.42
2023-03-11T22:39:06.319Z,61.66
2023-03-11T22:41:28.016Z,61.64
2023-03-11T22:43:49.698Z,62.34
2023-03-11T22:46:11.442Z,62.18
2023-03-11T22:48:34.450Z,62.00
2023-03-11T22:50:56.976Z,61.88
2023-03-11T22:53:21.441Z,62.51
2023-03-11T22:55:44.721Z,62.55
2023-03-11T22:58:06.326Z,62.72
2023-03-11T23:00:27.977Z,62.62
2023-03-11T23:02:55.080Z,62.74
2023-03-11T23:05:16.783Z,62.90
2023-03-11T23:07:39.127Z,62.39
2023-03-11T23:10:00.895Z,62.83
2023-03-11T23:12:22.545Z,62.88
2023-03-11T23:14:46.183Z,62.96
2023-03-11T23:17:07.863Z,62.76
2023-03-11T23:19:29.571Z,62.88
2023-03-11T23:21:51.214Z,62.85
2023-03-11T23:24:12.850Z,62.89
2023-03-11T23:26:35.358Z,62.73
2023-03-11T23:28:58.341Z,62.90
2023-03-11T23:31:23.301Z,62.94
2023-03-11T23:33:45.968Z,63.09
2023-03-11T23:36:12.708Z,62.81
2023-03-11T23:38:36.175Z,62.93
2023-03-11T23:40:58.385Z,62.71
2023-03-11T23:43:20.175Z,62.88
2023-03-11T23:45:41.801Z,62.94
2023-03-11T23:48:03.482Z,63.04
2023-03-11T23:50:25.180Z,63.49
2023-03-11T23:52:46.851Z,62.98
2023-03-11T23:55:09.793Z,63.43
2023-03-11T23:57:31.445Z,63.58
2023-03-11T23:59:53.033Z,63.50
